Aérodrome :
LOGIN :

S'inscrire | Disclaimer

   EN    FR    IT 

 










Légende :    VFR   VFR Marginal   IFR   IFR Intensif   IFR Très Intensif
Visi : 
Plafond : 
>= 8 km
>= 3000ft
5 à 8 km
1000 à 3000 ft
1500m à 5 km
500 à 1000 ft
800 à 1500m
200 à 500 ft
< 800m
< 200 ft
Symboles :   Orages  Brouillard  Fortes neiges  Fortes précipitations  Vent > 20 kt
SIGMETs :   Divers  Orages  Givrage  Turbulence  Onde Orograph.  Cendres Volcan.






- Altitude de l'aérodrome : 327 ft
- Code IATA : BHX


EGBB - Birmingham

DERNIER METAR :
  • 280520Z 17006KT CAVOK 02/M00 Q1010

METARs EXPIRÉS :
  • 280450Z 18005KT CAVOK 02/M00 Q1011
  • 280420Z 18005KT CAVOK 02/M00 Q1011
  • 280350Z 16004KT CAVOK 00/M01 Q1011
  • 280320Z 15005KT CAVOK 00/M01 Q1012
  • 280250Z 18004KT 150V210 CAVOK 02/M01 Q1012

TAF TAF EGBB
Valide du 28 à 06h jusqu'au 29 à 06h UTC


280454Z 2806/2906 18005KT 9999 SCT030
BECMG 2807/2810 16015G25KT BKN012
TEMPO 2808/2821 4000 RA BKN006
BECMG 2813/2816 22015G27KT
TEMPO 2821/2906 8000 -RA BKN006
PROB30
TEMPO 2903/2906 19022G38KT 3000 +RA
ATIS : +44 121 780 0910



MET'MAP, la Météo Aéronautique d'un coup d'oeil ! - Copyright ORBIFLY Décembre 2007 - Disclaimer

ORBIFLY MET'MAP TEAM :

Programmation & Développement : Alexandra Zaïnal
Sur une idée originale de : Baudouin d'Aumeries
Assistance à la programmation : Marc-Olivier Méhu
Soutien technique & logistique : Manuel Goepfert

Contact : metmap@orbifly.com




SOURCES & CREDITS :

   NOAA